Time;durP1;ratioP1;P1;durP2;ratioP2;P2;SDS_P1;SDS_P2;PMS_P1;PMS_P2;Temp;Humidity;BMP_temperature;BMP_pressure;BME280_temperature;BME280_humidity;BME280_pressure;Samples;Min_cycle;Max_cycle;Signal;HPM_P1;HPM_P2
2022/04/14 00:00:27;;;;;;;11.00;5.87;;;;;;;6.61;63.52;99778.72;4287809;33;34254;-77
2022/04/14 00:02:55;;;;;;;15.23;7.15;;;;;;;7.46;62.29;99779.63;4288216;33;33854;-77
2022/04/14 00:05:23;;;;;;;14.98;6.90;;;;;;;7.40;61.44;99789.94;4287465;33;35911;-78
2022/04/14 00:07:51;;;;;;;11.40;6.62;;;;;;;6.79;63.15;99784.97;4277263;33;34242;-78
2022/04/14 00:10:19;;;;;;;11.38;6.45;;;;;;;6.89;64.19;99780.78;4291209;33;34428;-78
2022/04/14 00:12:48;;;;;;;10.32;5.60;;;;;;;7.25;63.16;99772.53;4289903;33;34060;-78
2022/04/14 00:15:16;;;;;;;12.90;6.72;;;;;;;7.24;62.51;99778.56;4289816;33;35030;-77
2022/04/14 00:17:44;;;;;;;12.55;5.97;;;;;;;7.21;62.18;99774.22;4289990;33;34505;-77
2022/04/14 00:20:12;;;;;;;10.80;5.15;;;;;;;7.50;61.72;99770.16;4290804;33;33854;-78
2022/04/14 00:22:40;;;;;;;11.25;6.30;;;;;;;7.32;62.70;99769.12;4277943;33;33944;-78
2022/04/14 00:25:10;;;;;;;10.70;6.28;;;;;;;7.33;62.39;99765.69;4289793;33;36062;-78
2022/04/14 00:27:38;;;;;;;10.70;6.03;;;;;;;7.43;61.85;99778.72;4290057;33;34456;-78
2022/04/14 00:30:07;;;;;;;12.10;5.90;;;;;;;7.37;62.27;99780.41;4289508;33;33579;-77
2022/04/14 00:32:35;;;;;;;10.70;5.60;;;;;;;6.82;64.31;99779.84;4290093;33;34689;-78
2022/04/14 00:35:03;;;;;;;10.25;5.68;;;;;;;6.90;64.01;99780.81;4275344;33;35779;-78
2022/04/14 00:37:31;;;;;;;19.15;6.30;;;;;;;7.33;62.33;99778.66;4275230;33;34485;-76
2022/04/14 00:39:59;;;;;;;12.27;6.15;;;;;;;7.26;62.52;99776.84;4290646;33;33476;-78
2022/04/14 00:42:27;;;;;;;11.15;6.87;;;;;;;7.20;61.85;99782.84;4288726;33;33925;-77
2022/04/14 00:44:55;;;;;;;13.05;6.37;;;;;;;7.25;61.41;99780.28;4289892;33;36188;-76
2022/04/14 00:47:24;;;;;;;13.05;6.32;;;;;;;6.76;63.37;99778.06;4289552;33;34436;-78
2022/04/14 00:49:52;;;;;;;11.93;6.10;;;;;;;6.51;64.09;99774.31;4288690;33;33357;-76
2022/04/14 00:52:22;;;;;;;14.32;6.78;;;;;;;6.96;62.20;99770.50;4288786;33;33800;-78
2022/04/14 00:54:50;;;;;;;12.57;6.43;;;;;;;6.76;62.73;99769.41;4288728;33;35977;-77
2022/04/14 00:57:18;;;;;;;11.95;6.18;;;;;;;6.07;65.21;99767.69;4289434;33;34570;-77
2022/04/14 00:59:45;;;;;;;19.77;8.43;;;;;;;6.49;64.55;99773.41;4289867;33;34278;-77
2022/04/14 01:02:13;;;;;;;15.68;6.00;;;;;;;6.00;65.19;99765.88;4289545;33;33906;-77
2022/04/14 01:04:41;;;;;;;12.65;6.75;;;;;;;6.39;64.62;99775.03;4288645;33;35046;-78
2022/04/14 01:07:09;;;;;;;11.65;6.40;;;;;;;6.57;64.38;99763.16;4289847;33;34467;-77
2022/04/14 01:09:38;;;;;;;9.73;6.10;;;;;;;6.80;62.78;99766.88;4288444;33;33592;-78
2022/04/14 01:12:07;;;;;;;11.00;6.53;;;;;;;6.51;63.98;99768.25;4289219;33;34714;-78
2022/04/14 01:14:37;;;;;;;14.02;6.75;;;;;;;5.79;66.24;99762.91;4289276;33;35086;-77
2022/04/14 01:17:07;;;;;;;15.73;6.97;;;;;;;6.39;65.41;99767.25;4289440;33;33776;-77
2022/04/14 01:19:37;;;;;;;11.75;6.37;;;;;;;6.52;64.71;99768.28;4288035;33;33592;-77
2022/04/14 01:22:15;;;;;;;10.52;6.53;;;;;;;6.51;64.87;99769.16;4290533;33;33902;-78
2022/04/14 01:24:44;;;;;;;13.05;6.30;;;;;;;5.44;68.00;99760.66;4286475;33;36111;-76
2022/04/14 01:27:12;;;;;;;10.52;6.40;;;;;;;6.22;65.58;99767.03;4290494;33;35360;-77
2022/04/14 01:29:40;;;;;;;12.60;7.35;;;;;;;6.38;64.27;99768.09;4289763;33;33661;-78
2022/04/14 01:32:09;;;;;;;13.52;6.82;;;;;;;5.89;67.08;99760.50;4290468;33;33803;-78
2022/04/14 01:34:37;;;;;;;10.18;6.22;;;;;;;5.98;66.51;99758.91;4289664;33;35008;-78
2022/04/14 01:37:05;;;;;;;10.50;6.93;;;;;;;5.94;66.20;99760.56;4290395;33;34491;-77
2022/04/14 01:39:34;;;;;;;15.13;7.28;;;;;;;6.44;64.17;99767.31;4288291;33;33581;-78
2022/04/14 01:42:02;;;;;;;13.45;6.75;;;;;;;5.92;66.14;99766.56;4287623;33;33894;-78
2022/04/14 01:44:29;;;;;;;13.25;6.62;;;;;;;6.60;64.24;99769.25;4289583;33;35292;-78
2022/04/14 01:46:58;;;;;;;10.48;6.00;;;;;;;6.78;63.24;99780.69;4290489;33;35140;-78
2022/04/14 01:49:25;;;;;;;14.07;6.35;;;;;;;5.89;66.33;99773.44;4288491;33;33559;-78
2022/04/14 01:51:53;;;;;;;10.98;7.05;;;;;;;5.59;67.25;99767.78;4290412;33;34036;-78
2022/04/14 01:54:21;;;;;;;12.30;7.10;;;;;;;6.06;65.71;99770.25;4289451;33;36012;-77
2022/04/14 01:56:50;;;;;;;13.85;7.43;;;;;;;6.46;64.16;99773.37;4289652;33;34368;-75
2022/04/14 01:59:19;;;;;;;11.82;6.18;;;;;;;6.05;65.65;99769.38;4283420;33;33647;-78
2022/04/14 02:01:48;;;;;;;11.57;6.65;;;;;;;5.78;65.88;99769.78;4288484;33;33068;-77
2022/04/14 02:04:17;;;;;;;12.25;6.60;;;;;;;5.41;67.95;99770.91;4282925;33;35926;-77
2022/04/14 02:06:45;;;;;;;13.45;6.43;;;;;;;5.98;66.39;99777.00;4290292;33;34458;-78
2022/04/14 02:09:13;;;;;;;11.23;5.85;;;;;;;6.00;65.66;99770.16;4288379;33;33467;-78
2022/04/14 02:11:40;;;;;;;12.55;8.05;;;;;;;6.18;64.77;99775.59;4289111;33;34013;-78
2022/04/14 02:14:08;;;;;;;14.30;7.55;;;;;;;4.98;69.13;99772.72;4289260;33;35022;-78
2022/04/14 02:16:36;;;;;;;13.23;7.25;;;;;;;5.41;68.74;99774.38;4289058;33;35418;-77
2022/04/14 02:19:04;;;;;;;10.63;6.75;;;;;;;5.82;66.21;99770.72;4283078;33;33452;-77
2022/04/14 02:21:32;;;;;;;11.65;7.03;;;;;;;6.05;65.22;99773.66;4288186;33;33965;-77
2022/04/14 02:24:00;;;;;;;15.23;8.02;;;;;;;5.45;67.68;99767.53;4289325;33;35798;-78
2022/04/14 02:26:29;;;;;;;11.18;6.65;;;;;;;4.87;69.46;99775.09;4288692;33;34475;-77
2022/04/14 02:28:57;;;;;;;14.45;7.20;;;;;;;5.50;67.75;99774.50;4280487;33;33195;-77
2022/04/14 02:31:25;;;;;;;11.55;6.43;;;;;;;5.88;66.02;99774.25;4290130;33;33788;-78
2022/04/14 02:33:53;;;;;;;11.85;6.12;;;;;;;5.95;65.12;99774.34;4289188;33;34811;-76
2022/04/14 02:36:21;;;;;;;12.90;6.18;;;;;;;5.76;66.16;99784.41;4282309;33;34601;-77
2022/04/14 02:38:50;;;;;;;11.85;6.43;;;;;;;5.78;65.75;99781.84;4265066;33;33498;-77
2022/04/14 02:41:19;;;;;;;10.95;6.20;;;;;;;5.57;66.35;99782.38;4288771;33;33831;-78
2022/04/14 02:43:49;;;;;;;11.57;6.95;;;;;;;4.48;69.69;99774.34;4288298;33;35195;-78
2022/04/14 02:46:17;;;;;;;12.10;6.55;;;;;;;4.46;69.70;99777.72;4289849;33;34338;-77
2022/04/14 02:48:44;;;;;;;12.52;5.85;;;;;;;4.11;70.93;99772.66;4287834;33;33795;-78
2022/04/14 02:51:13;;;;;;;10.43;5.60;;;;;;;4.45;71.41;99771.72;4289753;33;34857;-78
2022/04/14 02:53:40;;;;;;;10.60;6.25;;;;;;;5.44;67.33;99769.25;4288249;33;35849;-77
2022/04/14 02:56:10;;;;;;;12.73;6.45;;;;;;;5.72;65.07;99772.31;4289778;33;34567;-77
2022/04/14 02:58:38;;;;;;;14.43;6.62;;;;;;;5.27;66.56;99768.94;4288907;33;34321;-78
2022/04/14 03:01:06;;;;;;;9.27;5.35;;;;;;;4.67;68.76;99765.25;4289649;33;34875;-76
2022/04/14 03:03:34;;;;;;;15.02;6.22;;;;;;;4.93;67.92;99768.34;4288808;33;35274;-78
2022/04/14 03:06:03;;;;;;;9.07;5.90;;;;;;;5.10;67.50;99758.34;4289716;33;35112;-77
2022/04/14 03:08:31;;;;;;;10.50;6.20;;;;;;;5.55;65.06;99766.00;4287672;33;34263;-78
2022/04/14 03:10:59;;;;;;;10.50;6.60;;;;;;;5.25;66.64;99768.06;4287515;33;33912;-78
2022/04/14 03:13:27;;;;;;;11.05;6.35;;;;;;;4.84;67.88;99769.91;4287212;33;34978;-77
2022/04/14 03:15:54;;;;;;;7.15;4.82;;;;;;;5.34;66.45;99767.34;4288307;33;34451;-77
2022/04/14 03:18:22;;;;;;;13.73;6.60;;;;;;;5.46;66.24;99764.97;4287670;33;34249;-74
2022/04/14 03:20:51;;;;;;;10.77;5.82;;;;;;;4.77;68.68;99768.91;4275187;33;33965;-78
2022/04/14 03:23:19;;;;;;;9.80;6.18;;;;;;;5.41;66.87;99768.34;4273910;33;34304;-78
2022/04/14 03:25:49;;;;;;;10.90;6.45;;;;;;;5.58;65.09;99771.22;4287488;33;33750;-77
2022/04/14 03:28:17;;;;;;;11.35;6.50;;;;;;;5.39;65.69;99772.63;4288607;33;35397;-78
2022/04/14 03:30:45;;;;;;;11.60;6.55;;;;;;;5.19;66.43;99769.66;4285781;33;34757;-79
2022/04/14 03:33:13;;;;;;;12.45;6.40;;;;;;;4.34;68.77;99776.62;4289264;33;35629;-76
2022/04/14 03:35:42;;;;;;;13.82;7.70;;;;;;;5.00;67.52;99771.91;4287194;33;34488;-78
2022/04/14 03:38:10;;;;;;;11.63;6.12;;;;;;;5.18;67.06;99773.97;4291161;33;34557;-77
2022/04/14 03:41:06;;;;;;;16.98;7.07;;;;;;;5.43;65.85;99772.66;4285618;33;33604;-78
2022/04/14 03:43:34;;;;;;;13.85;6.80;;;;;;;5.42;65.75;99775.25;4276635;33;35905;-77
2022/04/14 03:46:03;;;;;;;12.37;6.40;;;;;;;5.21;65.81;99773.16;4276658;33;35472;-78
2022/04/14 03:48:32;;;;;;;12.35;5.50;;;;;;;5.16;66.28;99774.78;4289475;33;34254;-75
2022/04/14 03:50:59;;;;;;;10.40;5.93;;;;;;;5.36;65.41;99778.56;4289865;33;33361;-78
2022/04/14 03:53:28;;;;;;;10.82;5.65;;;;;;;4.92;66.89;99778.63;4289736;33;35320;-77
2022/04/14 03:55:57;;;;;;;13.30;6.30;;;;;;;5.13;66.56;99789.38;4290163;33;34515;-75
2022/04/14 03:58:25;;;;;;;10.98;5.22;;;;;;;4.87;66.59;99786.31;4291115;33;33641;-77
2022/04/14 04:00:54;;;;;;;12.68;6.28;;;;;;;4.93;66.46;99791.56;4277092;33;33376;-77
2022/04/14 04:03:22;;;;;;;11.12;6.05;;;;;;;4.77;66.61;99786.09;4288325;33;35091;-77
2022/04/14 04:05:50;;;;;;;13.95;6.80;;;;;;;4.39;68.15;99792.19;4287941;33;33540;-77
2022/04/14 04:08:19;;;;;;;14.38;6.57;;;;;;;4.45;68.31;99789.75;4290795;33;34187;-75
2022/04/14 04:10:47;;;;;;;14.02;6.53;;;;;;;4.59;68.49;99792.63;4288636;33;34812;-75
2022/04/14 04:13:16;;;;;;;8.88;6.05;;;;;;;4.01;69.42;99788.75;4290681;33;36007;-75
2022/04/14 04:15:43;;;;;;;10.73;6.10;;;;;;;4.03;71.33;99797.41;4288700;33;34590;-74
2022/04/14 04:18:12;;;;;;;14.48;5.90;;;;;;;4.31;68.73;99793.75;4289952;33;33510;-75
2022/04/14 04:20:40;;;;;;;9.27;6.18;;;;;;;4.78;66.92;99790.41;4288667;33;32504;-76
2022/04/14 04:23:08;;;;;;;10.18;6.00;;;;;;;4.56;67.41;99796.00;4286754;33;35737;-76
2022/04/14 04:25:36;;;;;;;9.98;6.10;;;;;;;4.97;66.21;99792.50;4283312;33;34609;-73
2022/04/14 04:28:05;;;;;;;15.65;6.00;;;;;;;4.88;66.78;99789.75;4290670;33;33840;-75
2022/04/14 04:30:33;;;;;;;10.55;6.20;;;;;;;4.80;67.16;99791.31;4289914;33;33925;-72
2022/04/14 04:33:05;;;;;;;24.65;7.60;;;;;;;4.70;68.24;99792.84;4288959;33;35104;-73
2022/04/14 04:35:36;;;;;;;15.90;6.55;;;;;;;4.66;68.54;99796.19;4287416;33;34914;-71
2022/04/14 04:38:05;;;;;;;15.27;7.35;;;;;;;4.68;68.90;99799.69;4289287;33;33572;-74
2022/04/14 04:40:34;;;;;;;21.25;8.27;;;;;;;4.65;68.69;99803.06;4289485;33;33898;-74
2022/04/14 04:43:02;;;;;;;13.50;7.00;;;;;;;4.60;69.39;99796.94;4290259;33;35964;-75
2022/04/14 04:45:32;;;;;;;10.60;6.00;;;;;;;4.88;69.59;99792.34;4290439;33;34210;-75
2022/04/14 04:48:04;;;;;;;11.45;6.95;;;;;;;5.62;67.74;99799.69;4289952;33;32877;-75
2022/04/14 04:50:34;;;;;;;24.35;7.18;;;;;;;5.67;67.59;99797.19;4278030;33;33162;-74
2022/04/14 04:53:04;;;;;;;14.02;6.75;;;;;;;5.87;67.10;99807.84;4290432;33;35076;-73
2022/04/14 04:55:33;;;;;;;11.85;6.97;;;;;;;5.76;66.98;99812.84;4290482;33;33658;-78
2022/04/14 04:58:06;;;;;;;24.92;8.30;;;;;;;5.53;68.25;99814.19;4289328;33;32734;-76
2022/04/14 05:00:39;;;;;;;10.02;5.50;;;;;;;5.56;68.88;99814.22;4290287;33;33523;-77
2022/04/14 05:03:10;;;;;;;10.77;5.57;;;;;;;5.95;67.27;99810.53;4289320;33;34728;-74
2022/04/14 05:05:40;;;;;;;13.95;6.00;;;;;;;6.00;68.06;99811.50;4289451;33;34693;-74
2022/04/14 05:08:09;;;;;;;29.45;6.75;;;;;;;5.91;68.49;99825.13;4277738;33;33502;-77
2022/04/14 05:10:37;;;;;;;11.63;6.53;;;;;;;6.09;67.93;99824.59;4290518;33;33927;-78
2022/04/14 05:13:06;;;;;;;13.57;7.35;;;;;;;6.11;68.20;99827.22;4290194;33;34997;-75
2022/04/14 05:15:35;;;;;;;9.68;5.90;;;;;;;4.87;72.33;99821.53;4290464;33;34628;-75
2022/04/14 05:18:05;;;;;;;13.62;6.28;;;;;;;6.20;70.54;99825.63;4290401;33;32530;-76
2022/04/14 05:20:39;;;;;;;51.75;8.48;;;;;;;6.78;68.93;99830.72;4278128;33;33483;-74
2022/04/14 05:23:11;;;;;;;18.55;8.10;;;;;;;7.35;67.33;99831.34;4289438;33;36034;-75
2022/04/14 05:25:40;;;;;;;16.87;7.28;;;;;;;7.90;66.27;99822.34;4290551;33;34457;-79
2022/04/14 05:28:09;;;;;;;10.60;6.30;;;;;;;8.01;66.96;99825.87;4290476;33;33883;-79
2022/04/14 05:30:37;;;;;;;15.43;6.05;;;;;;;8.60;65.26;99826.28;4291598;33;33882;-78
2022/04/14 05:33:10;;;;;;;12.13;7.07;;;;;;;8.80;65.34;99826.37;4304733;33;35230;-81
2022/04/14 05:35:39;;;;;;;13.18;7.12;;;;;;;8.97;67.94;99816.91;4290056;33;35358;-79
2022/04/14 05:38:08;;;;;;;13.30;7.62;;;;;;;9.27;66.46;99831.72;4289899;33;33331;-81
2022/04/14 05:40:41;;;;;;;13.73;7.47;;;;;;;9.87;63.86;99837.00;4289779;33;33884;-81
2022/04/14 05:43:20;;;;;;;13.45;7.72;;;;;;;10.53;63.17;99830.88;4288821;33;36050;-80
2022/04/14 05:45:48;;;;;;;10.77;6.45;;;;;;;11.27;59.82;99840.13;4289749;33;34583;-74
2022/04/14 05:48:18;;;;;;;12.55;6.68;;;;;;;11.08;55.20;99837.62;4289770;33;33619;-81
2022/04/14 05:50:47;;;;;;;10.35;5.25;;;;;;;11.50;50.84;99826.94;4288104;33;34702;-79
2022/04/14 05:53:17;;;;;;;28.42;8.95;;;;;;;12.61;52.10;99829.47;4288562;33;35916;-80
2022/04/14 05:55:47;;;;;;;20.30;5.60;;;;;;;13.55;50.28;99827.41;4289706;33;33696;-79
2022/04/14 05:58:16;;;;;;;8.30;4.78;;;;;;;12.98;48.04;99830.78;4289823;33;34195;-79
2022/04/14 06:00:44;;;;;;;15.85;5.25;;;;;;;13.81;44.94;99820.00;4288492;33;33564;-80
2022/04/14 06:03:13;;;;;;;9.23;5.15;;;;;;;14.53;44.36;99828.34;4289590;33;36179;-77
2022/04/14 06:05:41;;;;;;;13.60;5.62;;;;;;;14.79;45.47;99833.13;4288340;33;33710;-80
2022/04/14 06:08:09;;;;;;;36.33;10.20;;;;;;;15.40;42.92;99829.22;4288353;33;34385;-85
2022/04/14 06:10:38;;;;;;;72.47;14.20;;;;;;;14.39;46.40;99826.00;4289672;33;34848;-78
2022/04/14 06:13:06;;;;;;;485.35;57.65;;;;;;;13.92;47.39;99821.59;4289421;33;35040;-82
2022/04/14 06:15:34;;;;;;;211.40;33.88;;;;;;;13.98;48.98;99829.34;4288266;33;34504;-84
2022/04/14 06:18:03;;;;;;;18.62;7.57;;;;;;;14.70;46.01;99827.19;4286040;33;33620;-78
2022/04/14 06:20:31;;;;;;;30.65;10.23;;;;;;;14.88;44.73;99832.06;4278061;33;34679;-79
2022/04/14 06:22:59;;;;;;;11.10;6.07;;;;;;;16.17;42.37;99830.03;4283968;33;35901;-84
2022/04/14 06:25:27;;;;;;;10.20;5.85;;;;;;;17.27;38.15;99822.59;4273003;33;35307;-81
2022/04/14 06:27:55;;;;;;;11.02;6.43;;;;;;;17.29;37.92;99820.78;4283321;33;33588;-81
2022/04/14 06:30:23;;;;;;;11.45;6.37;;;;;;;17.40;38.63;99823.94;4276539;33;34382;-78
2022/04/14 06:32:58;;;;;;;103.40;18.02;;;;;;;16.98;38.90;99822.56;4286554;33;35859;-77
2022/04/14 06:35:27;;;;;;;34.45;9.82;;;;;;;16.35;40.67;99818.16;4275989;33;33964;-80
2022/04/14 06:37:56;;;;;;;13.40;6.80;;;;;;;17.81;38.92;99825.25;4287399;33;33123;-81
2022/04/14 06:40:23;;;;;;;33.05;8.75;;;;;;;17.67;38.25;99816.09;4276384;33;33912;-81
2022/04/14 06:43:02;;;;;;;9.90;6.07;;;;;;;18.02;37.39;99822.84;4285147;33;35958;-80
2022/04/14 06:45:31;;;;;;;34.58;8.70;;;;;;;18.11;36.98;99816.41;4264440;33;34794;-80
2022/04/14 06:47:59;;;;;;;10.13;5.47;;;;;;;18.52;37.18;99819.38;4288661;33;33951;-77
2022/04/14 06:50:27;;;;;;;13.95;7.18;;;;;;;17.53;35.14;99819.16;4287677;33;35354;-78
2022/04/14 06:52:55;;;;;;;9.77;5.35;;;;;;;18.27;36.34;99822.88;4289657;33;35501;-78
2022/04/14 06:55:23;;;;;;;32.50;9.43;;;;;;;18.23;36.31;99825.66;4287606;33;34398;-78
2022/04/14 06:57:51;;;;;;;10.10;5.10;;;;;;;18.65;35.26;99823.28;4284087;33;33660;-77
2022/04/14 07:00:21;;;;;;;8.13;4.22;;;;;;;19.06;29.14;99823.56;4266606;33;33969;-78
2022/04/14 07:02:51;;;;;;;8.77;4.50;;;;;;;19.12;28.94;99823.31;4287300;33;35152;-77
2022/04/14 07:05:19;;;;;;;8.27;4.47;;;;;;;19.50;27.45;99812.19;4262547;33;35908;-78
2022/04/14 07:07:47;;;;;;;9.57;5.10;;;;;;;19.02;28.51;99815.81;4289612;33;34156;-77
2022/04/14 07:10:15;;;;;;;8.38;4.95;;;;;;;19.79;27.24;99821.59;4288902;33;34611;-76
2022/04/14 07:12:44;;;;;;;9.50;4.72;;;;;;;19.78;26.63;99827.81;4263333;33;35086;-79
2022/04/14 07:15:12;;;;;;;10.70;4.72;;;;;;;19.35;26.92;99826.00;4263276;33;34462;-76
2022/04/14 07:17:40;;;;;;;8.18;4.00;;;;;;;19.70;28.35;99819.31;4263437;33;33457;-76
2022/04/14 07:20:09;;;;;;;9.05;4.93;;;;;;;19.82;26.00;99813.56;4276790;33;34022;-77
2022/04/14 07:22:52;;;;;;;9.07;4.50;;;;;;;19.38;26.75;99818.81;4263296;33;35021;-76
2022/04/14 07:25:24;;;;;;;9.25;4.93;;;;;;;19.85;25.58;99817.84;4261436;33;34471;-77
2022/04/14 07:27:52;;;;;;;11.05;4.90;;;;;;;19.57;27.42;99818.97;4276114;33;33610;-76
2022/04/14 07:30:21;;;;;;;8.98;4.50;;;;;;;19.21;26.28;99816.81;4276093;33;33992;-77
2022/04/14 07:32:49;;;;;;;9.43;5.03;;;;;;;19.38;25.52;99821.47;4262399;33;35914;-78
2022/04/14 07:35:18;;;;;;;8.30;4.22;;;;;;;19.44;24.59;99823.84;4247857;33;34559;-76
2022/04/14 07:37:46;;;;;;;9.13;4.20;;;;;;;19.67;25.00;99824.72;4275884;33;34340;-78
2022/04/14 07:40:14;;;;;;;7.72;3.78;;;;;;;20.17;24.43;99824.44;4276627;33;34728;-77
2022/04/14 07:42:44;;;;;;;10.63;4.50;;;;;;;20.69;23.10;99821.31;4251513;33;34909;-77
2022/04/14 07:45:13;;;;;;;10.63;4.80;;;;;;;20.71;22.48;99823.91;4251983;33;33373;-77
2022/04/14 07:47:45;;;;;;;10.10;4.47;;;;;;;20.61;23.91;99826.06;4262312;33;33664;-77
2022/04/14 07:50:17;;;;;;;8.38;4.15;;;;;;;21.30;21.96;99825.59;4250275;33;33906;-78
2022/04/14 07:52:49;;;;;;;7.85;4.87;;;;;;;20.59;22.50;99820.84;4276125;33;34374;-78
2022/04/14 07:55:27;;;;;;;12.73;4.47;;;;;;;20.39;23.57;99828.81;4250755;33;33784;-78
2022/04/14 07:58:00;;;;;;;10.02;5.10;;;;;;;20.96;23.18;99818.34;4262523;33;33570;-78
2022/04/14 08:00:28;;;;;;;22.58;5.40;;;;;;;21.54;22.16;99820.94;4261201;33;33900;-75
2022/04/14 08:02:58;;;;;;;8.77;4.32;;;;;;;21.74;22.77;99827.06;4249575;33;35991;-78
2022/04/14 08:05:36;;;;;;;12.10;5.03;;;;;;;22.10;21.65;99824.38;4249446;33;34100;-76
2022/04/14 08:08:10;;;;;;;11.07;3.95;;;;;;;20.56;22.36;99831.56;4261409;33;33444;-78
2022/04/14 08:10:38;;;;;;;5.80;3.58;;;;;;;21.99;20.51;99826.72;4250171;33;34855;-78
2022/04/14 08:13:07;;;;;;;9.55;4.55;;;;;;;22.24;19.36;99836.09;4283842;33;35286;-77
2022/04/14 08:15:36;;;;;;;8.60;3.92;;;;;;;21.78;19.90;99834.78;4288341;33;34384;-77
2022/04/14 08:18:06;;;;;;;6.80;3.90;;;;;;;22.06;17.88;99825.47;4263797;33;33438;-77
2022/04/14 08:20:35;;;;;;;7.10;3.80;;;;;;;21.46;19.29;99835.47;4286212;33;33930;-75
2022/04/14 08:23:03;;;;;;;7.37;4.03;;;;;;;21.85;19.29;99837.12;4282352;33;35902;-73
2022/04/14 08:25:33;;;;;;;12.48;4.40;;;;;;;21.69;19.92;99829.94;4276081;33;35240;-72
2022/04/14 08:28:03;;;;;;;7.85;4.15;;;;;;;21.81;19.42;99832.91;4290688;33;33536;-73
2022/04/14 08:30:33;;;;;;;9.05;3.87;;;;;;;21.17;22.05;99838.53;4289696;33;34696;-73
2022/04/14 08:33:05;;;;;;;9.15;4.45;;;;;;;21.07;19.39;99836.38;4288860;33;34970;-73
2022/04/14 08:35:34;;;;;;;9.38;4.45;;;;;;;21.32;19.97;99834.34;4288863;33;34440;-75
2022/04/14 08:38:03;;;;;;;8.48;4.53;;;;;;;21.42;21.16;99836.53;4287621;33;33199;-75
2022/04/14 08:40:35;;;;;;;9.07;4.32;;;;;;;20.97;19.63;99833.31;4276442;33;33996;-75
2022/04/14 08:43:06;;;;;;;6.70;3.92;;;;;;;21.01;20.40;99826.94;4290641;33;36047;-75
2022/04/14 08:45:36;;;;;;;7.10;4.20;;;;;;;21.06;19.48;99827.59;4289683;33;34991;-75
2022/04/14 08:48:05;;;;;;;8.25;4.60;;;;;;;21.68;19.97;99832.66;4277322;33;30838;-74
2022/04/14 08:50:32;;;;;;;8.02;4.40;;;;;;;20.71;20.07;99834.50;4290970;33;34035;-76
2022/04/14 08:53:04;;;;;;;7.43;3.42;;;;;;;21.05;19.97;99830.31;4288527;33;35559;-74
2022/04/14 08:55:32;;;;;;;7.55;3.47;;;;;;;21.78;19.71;99842.75;4289552;33;35376;-76
2022/04/14 08:58:00;;;;;;;8.48;4.40;;;;;;;21.36;19.50;99827.09;4289994;33;34359;-76
2022/04/14 09:00:28;;;;;;;10.02;4.15;;;;;;;21.00;22.39;99826.09;4290859;33;33898;-77
2022/04/14 09:02:59;;;;;;;9.35;4.00;;;;;;;21.40;21.28;99829.50;4288202;33;35161;-78
2022/04/14 09:05:27;;;;;;;14.25;4.03;;;;;;;21.23;20.17;99834.78;4277812;33;34597;-79
2022/04/14 09:07:55;;;;;;;8.15;3.65;;;;;;;21.50;19.25;99835.28;4289092;33;33438;-79
2022/04/14 09:10:23;;;;;;;6.93;3.62;;;;;;;21.18;19.25;99831.47;4290634;33;33884;-78
2022/04/14 09:12:51;;;;;;;4.87;3.03;;;;;;;20.79;20.86;99824.44;4287471;33;35814;-80
2022/04/14 09:15:20;;;;;;;6.53;3.37;;;;;;;21.48;20.03;99833.63;4290655;33;34563;-83
2022/04/14 09:17:51;;;;;;;5.35;3.35;;;;;;;20.95;19.54;99833.37;4288496;33;33549;-79
2022/04/14 09:20:34;;;;;;;7.22;3.05;;;;;;;20.84;18.87;99835.66;4290748;33;33908;-79
2022/04/14 09:23:13;;;;;;;8.60;3.42;;;;;;;20.86;19.38;99823.22;4288676;33;35113;-76
2022/04/14 09:25:42;;;;;;;6.35;3.00;;;;;;;20.74;20.43;99837.00;4284599;33;35072;-78
2022/04/14 09:28:16;;;;;;;5.32;3.00;;;;;;;20.81;19.06;99835.81;4275733;33;33655;-80
2022/04/14 09:31:05;;;;;;;7.55;3.28;;;;;;;21.87;19.10;99824.69;4283513;33;194473;-79
2022/04/14 09:33:36;;;;;;;3.90;2.22;;;;;;;20.94;19.70;99826.37;4276125;33;35788;-78
2022/04/14 09:36:18;;;;;;;6.40;2.75;;;;;;;21.73;18.07;99828.84;4275782;33;33620;-79
2022/04/14 09:38:56;;;;;;;6.47;2.83;;;;;;;22.03;18.01;99833.56;4277234;33;33315;-81
2022/04/14 09:41:37;;;;;;;4.72;2.60;;;;;;;22.07;16.69;99821.84;4289564;33;33901;-79
2022/04/14 09:44:10;;;;;;;21.35;4.28;;;;;;;22.12;18.22;99821.62;4290456;33;35266;-80
2022/04/14 09:46:42;;;;;;;4.53;2.40;;;;;;;22.58;16.53;99829.06;4288435;33;34415;-79
2022/04/14 09:49:11;;;;;;;5.97;2.65;;;;;;;22.51;16.60;99820.53;4285834;33;34342;-79
2022/04/14 09:51:40;;;;;;;4.25;2.37;;;;;;;22.75;17.02;99820.16;4267019;33;33896;-79
2022/04/14 09:54:15;;;;;;;6.85;2.95;;;;;;;22.89;16.80;99813.19;4288382;33;35133;-79
2022/04/14 09:56:57;;;;;;;6.28;3.05;;;;;;;22.52;16.63;99817.81;4277699;33;34457;-80
2022/04/14 09:59:28;;;;;;;6.12;2.65;;;;;;;23.16;16.29;99817.97;4277585;33;33744;-79
2022/04/14 10:02:10;;;;;;;5.32;2.95;;;;;;;23.47;17.08;99809.13;4289477;33;34986;-79
2022/04/14 10:04:43;;;;;;;7.45;3.40;;;;;;;24.12;15.81;99805.41;4289006;33;34443;-79
2022/04/14 10:07:20;;;;;;;4.90;2.80;;;;;;;23.01;17.12;99811.69;4285037;33;34490;-80
2022/04/14 10:09:50;;;;;;;6.80;3.10;;;;;;;24.00;14.77;99798.16;4289192;33;32825;-80
2022/04/14 10:12:24;;;;;;;7.53;3.33;;;;;;;24.12;16.17;99799.25;4284887;33;33915;-79
2022/04/14 10:14:55;;;;;;;5.50;3.20;;;;;;;23.34;17.11;99794.81;4290012;33;35093;-79
2022/04/14 10:17:24;;;;;;;7.95;4.18;;;;;;;23.54;15.36;99799.03;4289362;33;34506;-79
2022/04/14 10:19:52;;;;;;;6.87;3.35;;;;;;;23.24;16.45;99786.53;4288974;33;33741;-80
2022/04/14 10:22:21;;;;;;;12.27;3.22;;;;;;;23.81;16.54;99785.97;4288848;33;34862;-79
2022/04/14 10:24:52;;;;;;;5.03;2.80;;;;;;;24.16;17.13;99790.13;4290017;33;35974;-79
2022/04/14 10:27:24;;;;;;;8.02;3.20;;;;;;;25.11;15.27;99786.94;4287717;33;34662;-79
2022/04/14 10:29:52;;;;;;;9.45;3.20;;;;;;;24.78;14.55;99782.78;4288852;33;33452;-79
2022/04/14 10:32:21;;;;;;;5.87;3.17;;;;;;;24.45;17.94;99782.19;4276073;33;33825;-79
2022/04/14 10:34:50;;;;;;;8.25;3.00;;;;;;;25.04;15.25;99777.59;4288710;33;34878;-80
2022/04/14 10:37:23;;;;;;;5.32;3.05;;;;;;;25.00;16.38;99776.09;4272573;33;34532;-80
2022/04/14 10:39:52;;;;;;;5.78;3.15;;;;;;;24.02;15.44;99777.66;4262728;33;32904;-79
2022/04/14 10:42:24;;;;;;;6.12;3.10;;;;;;;25.25;15.12;99775.41;4271808;33;34967;-79
2022/04/14 10:44:53;;;;;;;6.12;3.35;;;;;;;25.17;15.06;99773.22;4283108;33;35173;-80
2022/04/14 10:47:43;;;;;;;6.95;3.17;;;;;;;25.24;15.29;99772.84;4259331;33;34465;-78
2022/04/14 10:50:21;;;;;;;12.02;4.07;;;;;;;24.03;16.01;99769.56;4288751;33;32740;-80
2022/04/14 10:53:21;;;;;;;5.40;3.50;;;;;;;24.05;16.18;99772.13;4289057;33;33961;-78
2022/04/14 10:55:52;;;;;;;5.97;3.22;;;;;;;23.24;17.36;99770.59;4289660;33;35307;-79
2022/04/14 10:58:26;;;;;;;13.62;5.22;;;;;;;23.65;16.60;99769.16;4288908;33;35227;-79
2022/04/14 11:00:55;;;;;;;7.35;3.85;;;;;;;24.50;19.16;99769.47;4277869;33;33577;-78
2022/04/14 11:03:46;;;;;;;10.15;3.80;;;;;;;24.60;17.36;99759.97;4286324;33;33932;-78
2022/04/14 11:06:43;;;;;;;13.25;4.05;;;;;;;23.99;16.65;99773.37;4288880;33;35918;-78
2022/04/14 11:09:42;;;;;;;6.03;2.50;;;;;;;24.37;15.34;99767.56;4289593;33;35246;-79
2022/04/14 11:12:20;;;;;;;5.07;2.62;;;;;;;24.12;14.32;99767.31;4288583;33;34504;-79
2022/04/14 11:14:58;;;;;;;4.60;2.00;;;;;;;24.73;14.16;99766.25;4287391;33;33546;-78
2022/04/14 11:17:48;;;;;;;5.50;2.45;;;;;;;24.98;14.98;99764.69;4288583;33;36164;-78
2022/04/14 11:20:34;;;;;;;4.87;2.83;;;;;;;25.14;14.29;99743.25;4275079;33;35255;-79
2022/04/14 11:23:17;;;;;;;4.53;2.72;;;;;;;24.50;14.46;99745.50;4283043;33;33595;-79
2022/04/14 11:25:49;;;;;;;6.28;3.28;;;;;;;25.00;13.48;99744.13;4288608;33;33882;-78
2022/04/14 11:28:34;;;;;;;5.50;2.30;;;;;;;25.33;14.10;99754.44;4287956;33;36072;-78
2022/04/14 11:31:22;;;;;;;3.65;2.25;;;;;;;24.59;13.85;99751.13;4288034;33;35283;-79
2022/04/14 11:33:53;;;;;;;4.62;2.53;;;;;;;25.99;14.14;99748.34;4286773;33;33083;-79
2022/04/14 11:36:25;;;;;;;4.40;2.10;;;;;;;26.07;12.96;99746.03;4264783;33;33977;-78
2022/04/14 11:38:58;;;;;;;4.32;2.37;;;;;;;25.37;13.24;99741.75;4287233;33;35942;-79
2022/04/14 11:41:44;;;;;;;3.87;2.20;;;;;;;24.70;13.42;99741.63;4288632;33;35236;-78
2022/04/14 11:44:15;;;;;;;13.60;3.50;;;;;;;24.56;15.04;99737.16;4287594;33;33359;-78
2022/04/14 11:46:46;;;;;;;8.20;2.70;;;;;;;24.39;14.76;99736.38;4286825;33;34300;-79